Time;durP1;ratioP1;P1;durP2;ratioP2;P2;SDS_P1;SDS_P2;PMS_P1;PMS_P2;Temp;Humidity;BMP_temperature;BMP_pressure;BME280_temperature;BME280_humidity;BME280_pressure;Samples;Min_cycle;Max_cycle;Signal;HPM_P1;HPM_P2
2021/10/30 00:02:02;;;;;;;0.13;0.13;;;16.60;76.50;;;;;;5102986;28;20066;-38
2021/10/30 00:04:28;;;;;;;0.20;0.20;;;16.60;76.60;;;;;;5103109;28;20032;-38
2021/10/30 00:06:55;;;;;;;0.13;0.13;;;16.60;76.60;;;;;;5103080;28;20092;-38
2021/10/30 00:09:22;;;;;;;0.00;0.00;;;16.60;76.60;;;;;;5103354;28;20260;-38
2021/10/30 00:11:48;;;;;;;0.30;0.10;;;16.60;76.60;;;;;;5103122;28;20040;-38
2021/10/30 00:14:14;;;;;;;0.80;0.10;;;16.60;76.60;;;;;;5102888;28;20037;-38
2021/10/30 00:16:40;;;;;;;0.10;0.10;;;16.50;76.60;;;;;;5103263;28;20050;-38
2021/10/30 00:19:06;;;;;;;1.17;0.20;;;16.50;76.60;;;;;;5102928;28;20047;-38
2021/10/30 00:21:32;;;;;;;0.20;0.20;;;16.50;76.60;;;;;;5102918;28;20538;-38
2021/10/30 00:23:59;;;;;;;0.20;0.20;;;16.50;76.60;;;;;;5102695;28;20020;-38
2021/10/30 00:26:25;;;;;;;0.17;0.17;;;16.50;76.60;;;;;;5102975;28;20103;-38
2021/10/30 00:28:51;;;;;;;0.10;0.10;;;16.50;76.60;;;;;;5102866;28;20044;-38
2021/10/30 00:31:17;;;;;;;0.10;0.10;;;16.50;76.70;;;;;;5103068;28;20024;-38
2021/10/30 00:33:43;;;;;;;0.25;0.10;;;16.50;76.70;;;;;;5102512;28;20123;-38
2021/10/30 00:36:09;;;;;;;0.20;0.10;;;16.50;76.70;;;;;;5102593;28;20024;-38
2021/10/30 00:38:36;;;;;;;0.10;0.10;;;16.50;76.70;;;;;;5102943;28;20036;-38
2021/10/30 00:41:06;;;;;;;0.43;0.20;;;16.50;76.70;;;;;;5102680;28;20024;-38
2021/10/30 00:43:33;;;;;;;0.10;0.10;;;16.50;76.70;;;;;;5100239;28;20065;-38
2021/10/30 00:45:59;;;;;;;0.10;0.10;;;16.50;76.70;;;;;;5102776;28;20023;-38
2021/10/30 00:48:25;;;;;;;0.20;0.20;;;16.50;76.70;;;;;;5095356;28;20051;-38
2021/10/30 00:50:53;;;;;;;0.10;0.10;;;16.50;76.70;;;;;;5082496;28;20029;-38
2021/10/30 00:53:19;;;;;;;0.17;0.17;;;16.50;76.70;;;;;;5082243;28;20032;-39
2021/10/30 00:55:45;;;;;;;0.10;0.10;;;16.50;76.70;;;;;;5080906;28;20025;-38
2021/10/30 00:58:11;;;;;;;0.10;0.10;;;16.50;76.80;;;;;;5064466;28;20051;-38
2021/10/30 01:00:38;;;;;;;0.38;0.20;;;16.50;76.80;;;;;;5082197;28;20025;-38
2021/10/30 01:03:06;;;;;;;0.20;0.20;;;16.50;76.80;;;;;;5082414;28;20779;-38
2021/10/30 01:05:41;;;;;;;0.10;0.10;;;16.40;76.70;;;;;;5084843;28;20115;-38
2021/10/30 01:08:12;;;;;;;0.20;0.20;;;16.40;76.70;;;;;;5085540;28;20061;-38
2021/10/30 01:10:39;;;;;;;0.28;0.20;;;16.40;76.70;;;;;;5102330;28;20099;-38
2021/10/30 01:13:05;;;;;;;0.10;0.10;;;16.40;76.80;;;;;;5101297;28;20028;-38
2021/10/30 01:15:31;;;;;;;0.13;0.13;;;16.40;76.80;;;;;;5105909;28;20275;-38
2021/10/30 01:17:57;;;;;;;0.17;0.17;;;16.40;76.80;;;;;;5106444;28;20024;-38
2021/10/30 01:20:26;;;;;;;0.13;0.10;;;16.40;76.90;;;;;;5106344;28;20028;-38
2021/10/30 01:22:59;;;;;;;1.48;0.20;;;16.40;76.90;;;;;;5106460;28;20028;-38
2021/10/30 01:25:25;;;;;;;0.10;0.10;;;16.40;76.90;;;;;;5105940;28;20052;-38
2021/10/30 01:27:52;;;;;;;0.20;0.10;;;16.40;76.90;;;;;;5106440;28;20120;-38
2021/10/30 01:30:19;;;;;;;0.20;0.20;;;16.40;76.90;;;;;;5106195;28;20028;-38
2021/10/30 01:32:56;;;;;;;0.13;0.13;;;16.40;76.90;;;;;;5106197;28;20032;-38
2021/10/30 01:35:33;;;;;;;0.20;0.20;;;16.40;76.90;;;;;;5105752;28;20039;-38
2021/10/30 01:38:00;;;;;;;0.13;0.13;;;16.40;76.90;;;;;;5106070;28;20036;-38
2021/10/30 01:40:28;;;;;;;0.30;0.10;;;16.40;76.90;;;;;;5105631;28;20015;-38
2021/10/30 01:42:59;;;;;;;0.55;0.20;;;16.40;76.90;;;;;;5105691;28;20038;-38
2021/10/30 01:45:25;;;;;;;0.10;0.10;;;16.30;76.90;;;;;;5105819;28;20024;-38
2021/10/30 01:47:51;;;;;;;0.20;0.20;;;16.30;76.90;;;;;;5105970;28;20054;-38
2021/10/30 01:50:18;;;;;;;0.10;0.10;;;16.30;76.90;;;;;;5105814;28;20051;-38
2021/10/30 01:52:44;;;;;;;0.17;0.17;;;16.30;76.90;;;;;;5105614;28;20021;-38
2021/10/30 01:55:11;;;;;;;0.10;0.10;;;16.30;76.90;;;;;;5104208;28;20280;-38
2021/10/30 01:57:37;;;;;;;0.10;0.10;;;16.30;76.90;;;;;;5104218;28;20036;-38
2021/10/30 02:00:07;;;;;;;0.10;0.10;;;16.30;76.90;;;;;;5105497;28;20036;-38
2021/10/30 02:02:34;;;;;;;0.10;0.10;;;16.30;76.90;;;;;;5105767;28;20024;-39
2021/10/30 02:05:00;;;;;;;0.17;0.17;;;16.30;77.00;;;;;;5105255;28;20021;-38
2021/10/30 02:07:26;;;;;;;0.10;0.10;;;16.30;77.00;;;;;;5105424;28;20284;-38
2021/10/30 02:09:53;;;;;;;0.20;0.20;;;16.30;77.00;;;;;;5105626;28;20031;-38
2021/10/30 02:12:20;;;;;;;0.10;0.10;;;16.30;77.00;;;;;;5105401;28;20126;-38
2021/10/30 02:14:46;;;;;;;0.10;0.10;;;16.30;77.00;;;;;;5105054;28;20048;-38
2021/10/30 02:17:12;;;;;;;0.10;0.10;;;16.30;77.00;;;;;;5105411;28;20020;-38
2021/10/30 02:19:38;;;;;;;0.13;0.13;;;16.30;77.10;;;;;;5105347;28;20028;-38
2021/10/30 02:22:04;;;;;;;0.13;0.10;;;16.30;77.10;;;;;;5105320;28;20028;-38
2021/10/30 02:24:32;;;;;;;0.37;0.10;;;16.30;77.10;;;;;;5104841;28;20123;-38
2021/10/30 02:26:58;;;;;;;0.10;0.10;;;16.30;77.10;;;;;;5105101;28;20032;-38
2021/10/30 02:29:25;;;;;;;0.15;0.15;;;16.20;77.00;;;;;;5105255;28;20770;-38
2021/10/30 02:31:51;;;;;;;0.10;0.10;;;16.20;77.80;;;;;;5103863;28;20024;-38
2021/10/30 02:34:17;;;;;;;0.30;0.20;;;16.20;77.00;;;;;;5098096;28;20028;-38
2021/10/30 02:36:43;;;;;;;0.32;0.20;;;16.20;77.00;;;;;;5097258;28;20060;-38
2021/10/30 02:39:12;;;;;;;0.22;0.10;;;16.20;77.10;;;;;;5104843;28;20132;-38
2021/10/30 02:41:39;;;;;;;0.20;0.17;;;16.20;77.10;;;;;;5104962;28;20024;-38
2021/10/30 02:44:05;;;;;;;0.20;0.13;;;16.20;77.10;;;;;;5098210;28;20028;-38
2021/10/30 02:46:31;;;;;;;0.10;0.10;;;16.20;77.10;;;;;;5084578;28;20036;-38
2021/10/30 02:48:57;;;;;;;0.40;0.15;;;16.20;77.10;;;;;;5096253;28;20474;-38
2021/10/30 02:51:24;;;;;;;0.28;0.10;;;16.20;77.10;;;;;;5104744;28;20024;-38
2021/10/30 02:53:51;;;;;;;0.30;0.20;;;16.20;77.20;;;;;;5104579;28;20039;-38
2021/10/30 02:56:17;;;;;;;0.13;0.13;;;16.20;77.20;;;;;;5104458;28;20444;-38
2021/10/30 02:58:43;;;;;;;0.20;0.17;;;16.20;77.20;;;;;;5104217;28;20036;-38
2021/10/30 03:01:09;;;;;;;0.20;0.10;;;16.20;77.20;;;;;;5103087;28;20026;-38
2021/10/30 03:03:35;;;;;;;0.10;0.10;;;16.20;77.20;;;;;;5104437;28;20045;-38
2021/10/30 03:06:01;;;;;;;0.45;0.20;;;16.20;77.20;;;;;;5103930;28;20774;-38
2021/10/30 03:08:27;;;;;;;0.20;0.20;;;16.20;77.20;;;;;;5104327;28;20031;-38
2021/10/30 03:10:53;;;;;;;0.10;0.10;;;16.20;77.20;;;;;;5104235;28;20378;-38
2021/10/30 03:13:20;;;;;;;0.13;0.13;;;16.20;77.30;;;;;;5104328;28;20058;-38
2021/10/30 03:15:46;;;;;;;0.20;0.20;;;16.20;77.20;;;;;;5103977;28;20075;-38
2021/10/30 03:18:12;;;;;;;0.13;0.10;;;16.20;77.20;;;;;;5104014;28;20051;-38
2021/10/30 03:20:38;;;;;;;0.10;0.10;;;16.20;77.20;;;;;;5104322;28;20031;-38
2021/10/30 03:23:04;;;;;;;0.20;0.10;;;16.20;77.30;;;;;;5104133;28;20094;-38
2021/10/30 03:25:31;;;;;;;0.13;0.13;;;16.10;77.30;;;;;;5103934;28;20039;-38
2021/10/30 03:27:57;;;;;;;0.32;0.10;;;16.10;77.30;;;;;;5104118;28;20519;-38
2021/10/30 03:30:23;;;;;;;0.10;0.10;;;16.10;77.30;;;;;;5103963;28;20032;-38
2021/10/30 03:32:49;;;;;;;0.10;0.10;;;16.10;77.30;;;;;;5104019;28;20051;-38
2021/10/30 03:35:16;;;;;;;0.60;0.10;;;16.10;77.30;;;;;;5103167;28;20032;-38
2021/10/30 03:37:42;;;;;;;0.20;0.10;;;16.10;77.30;;;;;;5102531;28;20675;-38
2021/10/30 03:40:08;;;;;;;0.10;0.10;;;16.10;77.30;;;;;;5103904;28;20020;-38
2021/10/30 03:42:35;;;;;;;0.20;0.10;;;16.10;77.30;;;;;;5102496;28;20028;-38
2021/10/30 03:45:02;;;;;;;0.57;0.20;;;16.10;77.40;;;;;;5103622;28;20043;-38
2021/10/30 03:47:29;;;;;;;0.10;0.10;;;16.10;77.40;;;;;;5103380;28;20028;-38
2021/10/30 03:49:55;;;;;;;0.10;0.10;;;16.10;77.30;;;;;;5103661;28;20042;-38
2021/10/30 03:52:21;;;;;;;0.10;0.10;;;16.10;77.30;;;;;;5103671;28;20591;-38
2021/10/30 03:54:47;;;;;;;0.30;0.10;;;16.10;77.30;;;;;;5103668;28;20081;-38
2021/10/30 03:57:14;;;;;;;0.10;0.10;;;16.10;77.30;;;;;;5102812;28;20377;-38
2021/10/30 03:59:40;;;;;;;0.10;0.10;;;16.10;77.40;;;;;;5103423;28;20101;-38
2021/10/30 04:02:06;;;;;;;0.10;0.10;;;16.10;77.40;;;;;;5103517;28;20476;-38
2021/10/30 04:04:33;;;;;;;0.10;0.10;;;16.10;78.10;;;;;;5103199;28;20096;-38
2021/10/30 04:07:00;;;;;;;0.13;0.13;;;16.10;77.40;;;;;;5102874;28;20081;-38
2021/10/30 04:09:26;;;;;;;0.20;0.15;;;16.10;77.40;;;;;;5103319;28;20080;-38
2021/10/30 04:11:52;;;;;;;0.10;0.10;;;16.10;77.40;;;;;;5103115;28;20055;-38
2021/10/30 04:14:18;;;;;;;0.20;0.20;;;16.10;78.10;;;;;;5103252;28;20058;-38
2021/10/30 04:16:45;;;;;;;0.52;0.10;;;16.10;77.50;;;;;;5102906;28;20035;-38
2021/10/30 04:19:13;;;;;;;0.10;0.10;;;16.10;77.40;;;;;;5103026;28;20079;-38
2021/10/30 04:21:42;;;;;;;0.10;0.10;;;16.00;77.50;;;;;;5103232;28;20022;-37
2021/10/30 04:24:08;;;;;;;0.13;0.10;;;16.00;77.50;;;;;;5103097;28;20028;-38
2021/10/30 04:26:34;;;;;;;0.30;0.10;;;16.00;77.50;;;;;;5103141;28;20031;-39
2021/10/30 04:29:01;;;;;;;0.10;0.10;;;16.10;77.50;;;;;;5103060;28;20038;-37
2021/10/30 04:31:29;;;;;;;0.00;0.00;;;16.00;77.50;;;;;;5102913;28;20032;-37
2021/10/30 04:34:00;;;;;;;0.35;0.10;;;16.10;77.60;;;;;;5081317;28;20029;-37
2021/10/30 04:36:28;;;;;;;0.10;0.10;;;16.00;77.50;;;;;;5092975;28;20067;-37
2021/10/30 04:38:54;;;;;;;0.10;0.10;;;16.00;77.50;;;;;;5098766;28;20130;-38
2021/10/30 04:41:21;;;;;;;0.20;0.20;;;16.00;77.60;;;;;;5103071;28;20012;-37
2021/10/30 04:43:47;;;;;;;0.10;0.10;;;16.00;77.60;;;;;;5102875;28;20038;-38
2021/10/30 04:46:15;;;;;;;0.10;0.10;;;16.00;77.60;;;;;;5101467;28;20035;-45
2021/10/30 04:48:41;;;;;;;0.10;0.10;;;16.00;77.60;;;;;;5093108;28;20079;-37
2021/10/30 04:51:07;;;;;;;0.22;0.17;;;16.00;77.50;;;;;;5081370;28;20025;-37
2021/10/30 04:53:38;;;;;;;0.25;0.10;;;16.00;77.60;;;;;;5082618;28;20035;-38
2021/10/30 04:56:04;;;;;;;0.35;0.20;;;16.00;77.60;;;;;;5082457;28;20025;-38
2021/10/30 04:58:31;;;;;;;0.30;0.20;;;16.00;77.60;;;;;;5088471;28;20078;-37
2021/10/30 05:00:57;;;;;;;0.00;0.00;;;16.00;77.60;;;;;;5102589;28;20082;-38
2021/10/30 05:03:24;;;;;;;0.10;0.10;;;16.00;77.60;;;;;;5102740;28;20032;-38
2021/10/30 05:05:51;;;;;;;0.20;0.10;;;16.00;77.60;;;;;;5102345;28;20036;-37
2021/10/30 05:08:17;;;;;;;0.35;0.15;;;16.00;77.60;;;;;;5102358;28;20035;-38
2021/10/30 05:10:43;;;;;;;0.45;0.10;;;16.00;77.60;;;;;;5102331;28;20082;-38
2021/10/30 05:13:10;;;;;;;0.20;0.20;;;16.00;77.60;;;;;;5102682;28;20047;-37
2021/10/30 05:15:36;;;;;;;0.10;0.10;;;16.00;77.60;;;;;;5102674;28;20031;-38
2021/10/30 05:18:02;;;;;;;0.10;0.10;;;16.00;77.60;;;;;;5102372;28;20669;-38
2021/10/30 05:20:28;;;;;;;0.20;0.20;;;16.00;77.60;;;;;;5102391;28;20096;-37
2021/10/30 05:22:55;;;;;;;0.10;0.10;;;16.00;77.70;;;;;;5102634;28;20059;-38
2021/10/30 05:25:24;;;;;;;1.05;0.20;;;16.00;77.70;;;;;;5102540;28;20839;-37
2021/10/30 05:27:50;;;;;;;0.17;0.17;;;16.00;77.70;;;;;;5084457;28;20024;-38
2021/10/30 05:30:16;;;;;;;0.10;0.10;;;16.00;77.70;;;;;;5102501;28;20043;-38
2021/10/30 05:32:42;;;;;;;0.10;0.10;;;16.00;77.70;;;;;;5102188;28;20052;-37
2021/10/30 05:35:09;;;;;;;0.28;0.10;;;15.90;77.70;;;;;;5102272;28;20020;-37
2021/10/30 05:37:35;;;;;;;0.10;0.10;;;15.90;77.70;;;;;;5102007;28;20020;-37
2021/10/30 05:40:03;;;;;;;0.00;0.00;;;15.90;77.70;;;;;;5102288;28;20048;-37
2021/10/30 05:42:29;;;;;;;0.30;0.20;;;16.00;77.70;;;;;;5102474;28;20016;-38
2021/10/30 05:44:55;;;;;;;0.55;0.20;;;15.90;77.80;;;;;;5100949;28;20024;-37
2021/10/30 05:47:22;;;;;;;0.30;0.10;;;15.90;77.70;;;;;;5101038;28;20373;-38
2021/10/30 05:49:48;;;;;;;0.20;0.10;;;15.90;77.70;;;;;;5101958;28;20024;-38
2021/10/30 05:52:15;;;;;;;0.10;0.10;;;15.90;77.80;;;;;;5102316;28;20020;-37
2021/10/30 05:54:41;;;;;;;0.10;0.10;;;15.90;77.70;;;;;;5102489;28;20086;-38
2021/10/30 05:57:13;;;;;;;0.10;0.10;;;15.90;77.70;;;;;;5102282;28;20038;-37
2021/10/30 05:59:40;;;;;;;0.47;0.20;;;15.90;77.80;;;;;;5102216;28;20044;-38
2021/10/30 06:02:10;;;;;;;0.10;0.10;;;15.90;77.90;;;;;;5105296;28;20021;-37
2021/10/30 06:04:37;;;;;;;0.32;0.17;;;15.90;77.80;;;;;;5105487;28;20036;-38
2021/10/30 06:07:03;;;;;;;0.80;0.10;;;15.90;77.80;;;;;;5105347;28;20063;-38
2021/10/30 06:09:30;;;;;;;0.10;0.10;;;15.90;77.80;;;;;;5087188;28;20530;-38
2021/10/30 06:11:56;;;;;;;0.10;0.10;;;15.90;77.80;;;;;;5105477;28;20099;-38
2021/10/30 06:14:22;;;;;;;0.10;0.10;;;15.90;77.80;;;;;;5105638;28;20020;-37
2021/10/30 06:16:48;;;;;;;0.10;0.10;;;15.90;77.90;;;;;;5105545;28;20671;-37
2021/10/30 06:19:14;;;;;;;0.10;0.10;;;15.90;77.90;;;;;;5104972;28;20040;-38
2021/10/30 06:21:41;;;;;;;0.20;0.10;;;15.90;77.80;;;;;;5105703;28;20369;-37
2021/10/30 06:24:07;;;;;;;0.28;0.10;;;15.90;77.90;;;;;;5105350;28;20124;-38
2021/10/30 06:26:34;;;;;;;0.17;0.10;;;15.90;77.90;;;;;;5105399;28;20034;-37
2021/10/30 06:29:00;;;;;;;0.35;0.10;;;15.90;77.90;;;;;;5105279;28;20052;-37
2021/10/30 06:31:26;;;;;;;0.45;0.20;;;15.90;77.90;;;;;;5105054;28;20056;-38
2021/10/30 06:33:53;;;;;;;0.03;0.03;;;15.90;77.90;;;;;;5105120;28;20028;-38
2021/10/30 06:36:19;;;;;;;0.13;0.10;;;15.90;77.90;;;;;;5104778;28;20028;-37
2021/10/30 06:38:45;;;;;;;0.15;0.10;;;15.90;77.90;;;;;;5102921;28;20045;-38
2021/10/30 06:41:14;;;;;;;0.10;0.10;;;15.80;77.80;;;;;;5085027;28;20017;-38
2021/10/30 06:43:40;;;;;;;0.10;0.10;;;15.90;77.90;;;;;;5084782;28;20028;-38
2021/10/30 06:46:07;;;;;;;0.13;0.10;;;15.80;77.80;;;;;;5084694;28;20034;-38
2021/10/30 06:48:33;;;;;;;0.50;0.10;;;15.80;77.80;;;;;;5093068;28;20041;-38
2021/10/30 06:51:00;;;;;;;0.10;0.10;;;15.80;77.90;;;;;;5103361;28;20030;-37
2021/10/30 06:53:26;;;;;;;0.10;0.10;;;15.80;77.90;;;;;;5105079;28;20556;-37
2021/10/30 06:55:54;;;;;;;0.57;0.20;;;15.80;77.90;;;;;;5104765;28;20056;-37
2021/10/30 06:58:20;;;;;;;0.55;0.10;;;15.80;77.90;;;;;;5104676;28;20035;-37
2021/10/30 07:00:46;;;;;;;0.10;0.10;;;15.80;77.90;;;;;;5103065;28;20023;-38
2021/10/30 07:03:12;;;;;;;0.10;0.10;;;15.80;77.90;;;;;;5104429;28;20035;-38
2021/10/30 07:05:40;;;;;;;0.10;0.10;;;15.80;78.00;;;;;;5104272;28;20050;-38
2021/10/30 07:08:06;;;;;;;0.40;0.10;;;15.80;78.00;;;;;;5104574;28;20025;-37
2021/10/30 07:10:32;;;;;;;0.05;0.05;;;15.80;78.00;;;;;;5103868;28;20083;-38
2021/10/30 07:12:58;;;;;;;0.30;0.10;;;15.80;78.00;;;;;;5103787;28;20024;-37
2021/10/30 07:15:24;;;;;;;0.10;0.10;;;15.80;78.00;;;;;;5104388;28;20051;-37
2021/10/30 07:17:50;;;;;;;0.10;0.10;;;15.80;78.00;;;;;;5104285;28;20036;-38
2021/10/30 07:20:17;;;;;;;0.30;0.10;;;15.80;78.00;;;;;;5104140;28;20035;-38
2021/10/30 07:22:44;;;;;;;0.47;0.10;;;15.80;78.00;;;;;;5104277;28;20059;-38
2021/10/30 07:25:10;;;;;;;;;;;15.80;78.00;;;;;;5104889;28;20093;-38
2021/10/30 07:27:37;;;;;;;0.10;0.10;;;15.80;78.10;;;;;;5104093;28;19908;-38
2021/10/30 07:30:05;;;;;;;0.10;0.10;;;15.80;78.00;;;;;;5103709;28;20024;-37
2021/10/30 07:32:31;;;;;;;0.10;0.10;;;15.80;78.00;;;;;;5103979;28;20091;-38
2021/10/30 07:34:57;;;;;;;0.15;0.10;;;15.80;78.00;;;;;;5103906;28;20028;-38
2021/10/30 07:37:23;;;;;;;0.10;0.10;;;15.80;78.00;;;;;;5103748;28;20024;-37
2021/10/30 07:39:50;;;;;;;0.10;0.10;;;15.80;78.10;;;;;;5103861;28;20024;-38
2021/10/30 07:42:16;;;;;;;0.10;0.10;;;15.80;78.10;;;;;;5103754;28;20039;-37
2021/10/30 07:44:43;;;;;;;0.10;0.10;;;15.80;78.10;;;;;;5103819;28;20040;-38
2021/10/30 07:47:09;;;;;;;0.10;0.10;;;15.80;78.10;;;;;;5103873;28;20027;-38
2021/10/30 07:49:35;;;;;;;0.10;0.08;;;15.80;78.10;;;;;;5103716;28;20028;-37
2021/10/30 07:52:05;;;;;;;0.20;0.17;;;15.80;78.00;;;;;;5103824;28;20031;-38
2021/10/30 07:54:32;;;;;;;0.75;0.10;;;15.80;78.80;;;;;;5103336;28;20063;-38
2021/10/30 07:56:59;;;;;;;0.10;0.10;;;15.80;78.10;;;;;;5103657;28;20024;-38
2021/10/30 07:59:25;;;;;;;0.03;0.03;;;15.80;78.10;;;;;;5103435;28;20063;-37
2021/10/30 08:01:52;;;;;;;0.10;0.10;;;15.80;78.10;;;;;;5103358;28;20020;-38
2021/10/30 08:04:20;;;;;;;0.25;0.10;;;15.80;78.10;;;;;;5102336;28;20032;-38
2021/10/30 08:06:46;;;;;;;0.20;0.10;;;15.80;78.10;;;;;;5102827;28;20049;-38
2021/10/30 08:09:12;;;;;;;0.10;0.10;;;15.80;78.10;;;;;;5088408;28;20028;-38
2021/10/30 08:11:38;;;;;;;0.60;0.10;;;15.70;78.10;;;;;;5103276;28;20291;-37
2021/10/30 08:14:04;;;;;;;0.22;0.22;;;15.80;78.20;;;;;;5103225;28;20024;-39
2021/10/30 08:16:31;;;;;;;0.22;0.10;;;15.70;78.10;;;;;;5103262;28;20556;-37
2021/10/30 08:18:57;;;;;;;0.00;0.00;;;15.70;78.10;;;;;;5103321;28;20047;-38
2021/10/30 08:21:23;;;;;;;0.35;0.20;;;15.70;78.10;;;;;;5103041;28;20052;-37
2021/10/30 08:23:50;;;;;;;0.00;0.00;;;15.70;78.10;;;;;;5102855;28;20036;-38
2021/10/30 08:26:17;;;;;;;0.10;0.10;;;15.70;78.20;;;;;;5103172;28;20400;-38
2021/10/30 08:28:46;;;;;;;0.15;0.10;;;15.70;78.20;;;;;;5103093;28;20036;-37
2021/10/30 08:31:13;;;;;;;0.10;0.10;;;15.70;78.20;;;;;;5102666;28;20390;-38
2021/10/30 08:33:39;;;;;;;0.08;0.08;;;15.70;78.30;;;;;;5103116;28;20126;-38
2021/10/30 08:36:05;;;;;;;0.10;0.10;;;15.70;78.20;;;;;;5102745;28;20028;-37
2021/10/30 08:38:34;;;;;;;0.10;0.10;;;15.70;78.20;;;;;;5102860;28;20040;-41
2021/10/30 08:41:01;;;;;;;0.10;0.10;;;15.70;78.20;;;;;;5102661;28;20024;-38
2021/10/30 08:43:27;;;;;;;0.20;0.10;;;15.70;78.20;;;;;;5102435;28;20036;-37
2021/10/30 08:45:54;;;;;;;1.20;0.27;;;15.70;78.30;;;;;;5102771;28;20039;-37
2021/10/30 08:48:25;;;;;;;0.10;0.10;;;15.70;78.30;;;;;;5101522;28;20443;-37
2021/10/30 08:50:52;;;;;;;0.10;0.10;;;15.70;78.30;;;;;;5101315;28;20020;-38
2021/10/30 08:53:19;;;;;;;0.10;0.10;;;15.70;78.30;;;;;;5103000;28;20106;-37
2021/10/30 08:55:46;;;;;;;0.08;0.08;;;15.70;78.30;;;;;;5102751;28;20024;-38
2021/10/30 08:58:14;;;;;;;0.40;0.20;;;15.70;78.30;;;;;;5102557;28;20039;-38
2021/10/30 09:00:42;;;;;;;0.10;0.10;;;15.70;78.30;;;;;;5102424;28;20036;-37
2021/10/30 09:03:10;;;;;;;0.10;0.10;;;15.70;78.30;;;;;;5102817;28;20019;-37
2021/10/30 09:05:36;;;;;;;0.10;0.10;;;15.70;78.40;;;;;;5102477;28;20036;-38
2021/10/30 09:08:04;;;;;;;0.17;0.10;;;15.70;78.30;;;;;;5102612;28;20035;-38
2021/10/30 09:10:35;;;;;;;0.38;0.10;;;15.70;78.40;;;;;;5102484;28;20059;-38
2021/10/30 09:13:04;;;;;;;0.17;0.10;;;15.70;78.40;;;;;;5102352;28;20031;-38
2021/10/30 09:15:37;;;;;;;0.10;0.10;;;15.70;78.40;;;;;;5102552;28;20709;-38
2021/10/30 09:18:29;;;;;;;0.15;0.15;;;15.70;78.40;;;;;;5102713;28;20036;-38
2021/10/30 09:21:16;;;;;;;0.20;0.10;;;15.70;78.30;;;;;;5096064;28;20035;-38
2021/10/30 09:23:52;;;;;;;0.10;0.10;;;15.70;78.40;;;;;;5101245;28;20050;-37
2021/10/30 09:26:24;;;;;;;0.10;0.10;;;15.70;78.40;;;;;;5102416;28;20107;-37
2021/10/30 09:29:12;;;;;;;0.10;0.10;;;15.60;78.30;;;;;;5102524;28;20044;-38
2021/10/30 09:31:39;;;;;;;0.10;0.10;;;15.60;78.30;;;;;;5102036;28;20024;-38
2021/10/30 09:34:06;;;;;;;0.13;0.10;;;15.70;78.40;;;;;;5102321;28;20051;-38
2021/10/30 09:36:38;;;;;;;0.10;0.10;;;15.60;78.40;;;;;;5105687;28;20044;-37
2021/10/30 09:39:06;;;;;;;0.10;0.00;;;15.60;78.30;;;;;;5106217;28;20396;-38
2021/10/30 09:41:36;;;;;;;0.00;0.00;;;15.60;78.40;;;;;;5106073;28;20617;-38
2021/10/30 09:44:19;;;;;;;0.28;0.10;;;15.60;78.40;;;;;;5106184;28;20028;-38
2021/10/30 09:46:46;;;;;;;0.10;0.10;;;15.60;78.40;;;;;;5106015;28;20035;-38
2021/10/30 09:49:14;;;;;;;0.20;0.10;;;15.60;78.40;;;;;;5106196;28;20024;-38
2021/10/30 09:51:40;;;;;;;0.00;0.00;;;15.60;78.30;;;;;;5105794;28;20777;-38
2021/10/30 09:54:07;;;;;;;0.10;0.10;;;15.60;78.40;;;;;;5106028;28;20028;-38
2021/10/30 09:56:40;;;;;;;0.10;0.10;;;15.60;78.50;;;;;;5105824;28;20588;-37
2021/10/30 09:59:08;;;;;;;0.40;0.20;;;15.60;78.40;;;;;;5105655;28;20043;-38
2021/10/30 10:01:34;;;;;;;0.20;0.10;;;15.60;78.40;;;;;;5105031;28;20032;-38
2021/10/30 10:04:00;;;;;;;0.10;0.10;;;15.60;78.40;;;;;;5104402;28;20053;-38
2021/10/30 10:06:27;;;;;;;0.65;0.10;;;15.60;78.40;;;;;;5103957;28;20039;-38
2021/10/30 10:08:53;;;;;;;0.40;0.13;;;15.60;78.40;;;;;;5104257;28;20028;-38
2021/10/30 10:11:19;;;;;;;0.20;0.10;;;15.60;78.50;;;;;;5105497;28;20052;-37
2021/10/30 10:13:47;;;;;;;0.10;0.10;;;15.60;78.50;;;;;;5105459;28;20059;-38
2021/10/30 10:16:23;;;;;;;0.73;0.10;;;15.60;78.50;;;;;;5105366;28;20024;-38
2021/10/30 10:18:55;;;;;;;0.40;0.10;;;15.60;78.50;;;;;;5105380;28;20055;-37
2021/10/30 10:21:28;;;;;;;0.10;0.10;;;15.60;78.50;;;;;;5105277;28;20048;-38
2021/10/30 10:23:55;;;;;;;0.10;0.10;;;15.50;78.40;;;;;;5105208;28;20059;-38
2021/10/30 10:26:49;;;;;;;0.43;0.10;;;15.60;78.50;;;;;;5105398;28;20024;-38
2021/10/30 10:29:31;;;;;;;0.10;0.10;;;15.50;78.40;;;;;;5105383;28;20054;-38
2021/10/30 10:31:58;;;;;;;0.10;0.10;;;15.50;78.40;;;;;;5084567;28;20461;-38
2021/10/30 10:34:35;;;;;;;0.63;0.10;;;15.50;78.40;;;;;;5091582;28;20137;-38
2021/10/30 10:37:17;;;;;;;0.10;0.10;;;15.50;78.40;;;;;;5104619;28;20500;-38
2021/10/30 10:39:47;;;;;;;0.10;0.10;;;15.60;78.50;;;;;;5105087;28;20047;-38
2021/10/30 10:42:15;;;;;;;0.55;0.10;;;15.50;78.40;;;;;;5104772;28;20046;-38
2021/10/30 10:44:41;;;;;;;0.73;0.20;;;15.60;78.50;;;;;;5105063;28;20027;-37
2021/10/30 10:47:40;;;;;;;0.10;0.10;;;15.50;78.50;;;;;;5104559;28;20024;-38
2021/10/30 10:50:19;;;;;;;0.10;0.10;;;15.50;78.40;;;;;;5082776;28;20786;-38
2021/10/30 10:53:13;;;;;;;0.10;0.10;;;15.50;78.50;;;;;;5087598;28;20105;-38
2021/10/30 10:55:45;;;;;;;0.20;0.10;;;15.50;78.50;;;;;;5084370;28;20058;-37
2021/10/30 10:58:13;;;;;;;0.10;0.10;;;15.50;78.50;;;;;;5084482;28;20087;-38
2021/10/30 11:01:07;;;;;;;0.10;0.10;;;15.50;78.50;;;;;;5096181;28;20035;-37
2021/10/30 11:03:40;;;;;;;0.10;0.10;;;15.50;78.50;;;;;;5088497;28;20106;-37
2021/10/30 11:06:07;;;;;;;0.35;0.10;;;15.50;78.50;;;;;;5102820;28;20066;-37
2021/10/30 11:08:34;;;;;;;0.08;0.08;;;15.50;78.50;;;;;;5104614;28;20024;-38
2021/10/30 11:11:12;;;;;;;1.55;0.10;;;15.50;78.50;;;;;;5104378;28;20060;-38
2021/10/30 11:14:02;;;;;;;0.10;0.10;;;15.50;78.50;;;;;;5104362;28;20052;-38
2021/10/30 11:16:31;;;;;;;0.10;0.10;;;15.50;78.50;;;;;;5104296;28;20032;-38
2021/10/30 11:19:14;;;;;;;0.10;0.10;;;15.50;78.50;;;;;;5104015;28;20039;-38
2021/10/30 11:21:50;;;;;;;0.20;0.10;;;15.50;78.50;;;;;;5101123;28;20025;-38
2021/10/30 11:24:21;;;;;;;0.10;0.10;;;15.50;78.40;;;;;;5103866;28;20036;-38
2021/10/30 11:26:55;;;;;;;0.10;0.10;;;15.50;78.50;;;;;;5104028;28;20504;-37
2021/10/30 11:29:21;;;;;;;0.55;0.10;;;15.50;78.40;;;;;;5104132;28;20705;-38
2021/10/30 11:31:53;;;;;;;0.47;0.10;;;15.50;78.50;;;;;;5103827;28;20039;-38
2021/10/30 11:34:20;;;;;;;0.08;0.08;;;15.50;78.50;;;;;;5102131;28;20020;-38
2021/10/30 11:36:47;;;;;;;0.20;0.20;;;15.50;78.50;;;;;;5103589;28;20534;-38
2021/10/30 11:39:13;;;;;;;0.10;0.10;;;15.50;78.50;;;;;;5103907;28;20048;-38
2021/10/30 11:41:40;;;;;;;0.10;0.10;;;15.50;78.60;;;;;;5103888;28;20044;-38
2021/10/30 11:44:13;;;;;;;0.10;0.10;;;15.50;78.50;;;;;;5103738;28;20046;-38
2021/10/30 11:46:46;;;;;;;0.10;0.10;;;15.50;78.50;;;;;;5103445;28;20043;-38
2021/10/30 11:49:16;;;;;;;0.10;0.10;;;15.50;78.50;;;;;;5103789;28;20028;-38
2021/10/30 11:51:44;;;;;;;0.68;0.10;;;15.50;78.50;;;;;;5102135;28;20028;-37
2021/10/30 11:54:11;;;;;;;0.10;0.10;;;15.50;78.50;;;;;;5103376;28;20024;-38
2021/10/30 11:56:37;;;;;;;;;;;15.50;78.50;;;;;;5102753;28;20035;-37
2021/10/30 11:59:05;;;;;;;0.52;0.10;;;15.50;78.60;;;;;;5102665;28;19916;-38
2021/10/30 12:01:39;;;;;;;0.35;0.10;;;15.50;78.90;;;;;;5103361;28;20088;-37
2021/10/30 12:04:05;;;;;;;0.10;0.10;;;15.50;79.40;;;;;;5101698;28;20028;-37
2021/10/30 12:06:39;;;;;;;0.10;0.10;;;15.60;79.40;;;;;;5102990;28;20031;-38
2021/10/30 12:09:26;;;;;;;0.10;0.10;;;15.50;79.20;;;;;;5103134;28;20032;-37
2021/10/30 12:11:55;;;;;;;0.30;0.10;;;15.50;79.20;;;;;;5103209;28;20052;-38
2021/10/30 12:14:28;;;;;;;0.10;0.10;;;15.50;79.10;;;;;;5102892;28;20052;-37
2021/10/30 12:16:56;;;;;;;0.28;0.20;;;15.60;79.10;;;;;;5103066;28;20494;-38
2021/10/30 12:19:25;;;;;;;0.30;0.10;;;15.50;79.00;;;;;;5081581;28;20036;-37
2021/10/30 12:22:08;;;;;;;0.15;0.10;;;15.50;79.60;;;;;;5082681;28;20028;-38
2021/10/30 12:24:36;;;;;;;0.10;0.10;;;15.60;78.90;;;;;;5082635;28;20033;-37
2021/10/30 12:27:04;;;;;;;0.10;0.10;;;15.50;78.80;;;;;;5082542;28;20054;-37
2021/10/30 12:29:31;;;;;;;0.32;0.10;;;15.60;78.80;;;;;;5084691;28;20028;-37
2021/10/30 12:32:08;;;;;;;0.52;0.17;;;15.50;78.80;;;;;;5102868;28;20059;-38
2021/10/30 12:34:35;;;;;;;0.10;0.10;;;15.50;78.80;;;;;;5093509;28;20634;-37
2021/10/30 12:37:01;;;;;;;;;;;15.50;78.70;;;;;;5098003;28;20032;-38
2021/10/30 12:39:27;;;;;;;0.10;0.10;;;15.50;78.70;;;;;;5102852;28;19977;-37
2021/10/30 12:42:05;;;;;;;0.10;0.10;;;15.50;78.70;;;;;;5102825;28;20044;-38
2021/10/30 12:44:36;;;;;;;0.30;0.20;;;15.50;78.60;;;;;;5102581;28;20020;-37
2021/10/30 12:47:04;;;;;;;0.10;0.10;;;15.50;78.60;;;;;;5088905;28;20033;-38
2021/10/30 12:49:32;;;;;;;0.05;0.05;;;15.50;78.70;;;;;;5098799;28;20404;-38
2021/10/30 12:52:08;;;;;;;0.10;0.10;;;15.50;78.60;;;;;;5102677;28;20038;-38
2021/10/30 12:54:37;;;;;;;0.10;0.10;;;15.50;78.70;;;;;;5102489;28;20050;-37